createdAt,value
2022-12-16T00:01:23.878Z,-7.80
2022-12-16T00:03:55.158Z,-7.80
2022-12-16T00:06:25.104Z,-7.80
2022-12-16T00:08:52.433Z,-7.80
2022-12-16T00:11:20.352Z,-7.80
2022-12-16T00:13:48.118Z,-7.80
2022-12-16T00:16:17.307Z,-7.80
2022-12-16T00:18:45.214Z,-7.80
2022-12-16T00:21:12.690Z,-7.80
2022-12-16T00:23:41.508Z,-7.90
2022-12-16T00:26:09.497Z,-7.90
2022-12-16T00:28:37.288Z,-7.90
2022-12-16T00:31:04.615Z,-7.90
2022-12-16T00:33:32.359Z,-7.90
2022-12-16T00:35:59.372Z,-8.00
2022-12-16T00:38:27.237Z,-8.00
2022-12-16T00:40:54.536Z,-8.00
2022-12-16T00:43:22.240Z,-7.90
2022-12-16T00:45:49.763Z,-7.90
2022-12-16T00:48:19.141Z,-7.90
2022-12-16T00:50:55.084Z,-7.80
2022-12-16T00:53:23.659Z,-7.80
2022-12-16T00:55:51.505Z,-7.80
2022-12-16T00:58:18.947Z,-7.70
2022-12-16T01:00:45.605Z,-7.70
2022-12-16T01:03:18.007Z,-7.70
2022-12-16T01:05:48.676Z,-7.70
2022-12-16T01:08:15.729Z,-7.70
2022-12-16T01:10:42.478Z,-7.60
2022-12-16T01:13:09.521Z,-7.60
2022-12-16T01:15:37.901Z,-7.60
2022-12-16T01:18:04.926Z,-7.60
2022-12-16T01:20:33.464Z,-7.60
2022-12-16T01:23:00.316Z,-7.60
2022-12-16T01:25:27.950Z,-7.60
2022-12-16T01:27:54.602Z,-7.70
2022-12-16T01:30:23.307Z,-7.70
2022-12-16T01:32:50.248Z,-7.70
2022-12-16T01:35:50.923Z,-7.70
2022-12-16T01:38:05.142Z,-7.70
2022-12-16T01:40:31.942Z,-7.80
2022-12-16T01:42:58.881Z,-7.80
2022-12-16T01:45:30.756Z,-7.80
2022-12-16T01:48:02.748Z,-7.90
2022-12-16T01:50:31.532Z,-7.80
2022-12-16T01:53:01.083Z,-7.90
2022-12-16T01:55:33.377Z,-7.90
2022-12-16T01:58:06.984Z,-7.90
2022-12-16T02:00:34.886Z,-7.90
2022-12-16T02:03:02.525Z,-7.80
2022-12-16T02:05:30.162Z,-7.90
2022-12-16T02:08:04.611Z,-7.90
2022-12-16T02:10:44.054Z,-7.80
2022-12-16T02:13:43.786Z,-7.80
2022-12-16T02:16:22.856Z,-7.80
2022-12-16T02:19:04.938Z,-7.80
2022-12-16T02:21:43.590Z,-7.70
2022-12-16T02:24:48.462Z,-7.70
2022-12-16T02:27:21.131Z,-7.60
2022-12-16T02:30:19.731Z,-7.50
2022-12-16T02:33:06.795Z,-7.50
2022-12-16T02:35:59.111Z,-7.40
2022-12-16T02:38:56.027Z,-7.30
2022-12-16T02:41:37.487Z,-7.30
2022-12-16T02:44:10.584Z,-7.20
2022-12-16T02:46:52.803Z,-7.20
2022-12-16T02:49:22.857Z,-7.20
2022-12-16T02:51:49.985Z,-7.10
2022-12-16T02:54:18.122Z,-7.10
2022-12-16T02:56:52.090Z,-7.10
2022-12-16T02:59:35.941Z,-7.10
2022-12-16T03:02:10.446Z,-7.10
2022-12-16T03:04:48.939Z,-7.10
2022-12-16T03:07:18.440Z,-7.20
2022-12-16T03:09:47.775Z,-7.10
2022-12-16T03:12:17.922Z,-7.10
2022-12-16T03:14:48.912Z,-7.10
2022-12-16T03:17:18.497Z,-7.10
2022-12-16T03:19:53.519Z,-7.10
2022-12-16T03:22:27.654Z,-7.10
2022-12-16T03:24:55.421Z,-7.00
2022-12-16T03:27:35.856Z,-7.10
2022-12-16T03:30:06.976Z,-7.10
2022-12-16T03:32:48.397Z,-7.00
2022-12-16T03:35:26.966Z,-7.00
2022-12-16T03:37:57.633Z,-7.00
2022-12-16T03:40:26.881Z,-7.00
2022-12-16T03:42:55.291Z,-6.90
2022-12-16T03:45:51.639Z,-6.90
2022-12-16T03:48:23.470Z,-6.80
2022-12-16T03:50:50.105Z,-6.80
2022-12-16T03:53:17.646Z,-6.80
2022-12-16T03:55:44.602Z,-6.80
2022-12-16T03:58:11.471Z,-6.80
2022-12-16T04:00:38.734Z,-6.70
2022-12-16T04:03:05.583Z,-6.80
2022-12-16T04:05:33.110Z,-6.70
2022-12-16T04:08:02.298Z,-6.70
2022-12-16T04:10:49.092Z,-6.70
2022-12-16T04:13:34.971Z,-6.70
2022-12-16T04:16:20.592Z,-6.70
2022-12-16T04:19:07.081Z,-6.70
2022-12-16T04:21:52.426Z,-6.60
2022-12-16T04:24:21.042Z,-6.60
2022-12-16T04:27:11.802Z,-6.60
2022-12-16T04:30:00.814Z,-6.60
2022-12-16T04:32:27.699Z,-6.60
2022-12-16T04:34:54.914Z,-6.60
2022-12-16T04:37:40.119Z,-6.60
2022-12-16T04:40:26.797Z,-6.60
2022-12-16T04:43:12.231Z,-6.70
2022-12-16T04:45:58.536Z,-6.80
2022-12-16T04:48:47.172Z,-6.90
2022-12-16T04:51:32.483Z,-7.00
2022-12-16T04:54:18.345Z,-7.00
2022-12-16T04:57:03.640Z,-7.10
2022-12-16T04:59:49.428Z,-7.10
2022-12-16T05:02:51.672Z,-7.20
2022-12-16T05:05:37.325Z,-7.20
2022-12-16T05:08:22.673Z,-7.30
2022-12-16T05:11:08.435Z,-7.30
2022-12-16T05:14:04.772Z,-7.40
2022-12-16T05:16:50.201Z,-7.40
2022-12-16T05:19:36.009Z,-7.40
2022-12-16T05:22:21.360Z,-7.50
2022-12-16T05:25:07.065Z,-7.50
2022-12-16T05:27:52.469Z,-7.60
2022-12-16T05:30:38.725Z,-7.60
2022-12-16T05:33:23.921Z,-7.60
2022-12-16T05:36:09.903Z,-7.60
2022-12-16T05:38:55.483Z,-7.60
2022-12-16T05:41:41.011Z,-7.60
2022-12-16T05:44:26.862Z,-7.70
2022-12-16T05:47:11.973Z,-7.60
2022-12-16T05:50:02.333Z,-7.70
2022-12-16T05:52:47.903Z,-7.70
2022-12-16T05:55:34.296Z,-7.70
2022-12-16T05:58:19.574Z,-7.80
2022-12-16T06:01:05.340Z,-7.80
2022-12-16T06:03:50.931Z,-7.70
2022-12-16T06:06:36.754Z,-7.70
2022-12-16T06:09:21.901Z,-7.50
2022-12-16T06:12:08.689Z,-7.40
2022-12-16T06:14:54.038Z,-7.30
2022-12-16T06:17:40.375Z,-7.10
2022-12-16T06:20:26.813Z,-7.00
2022-12-16T06:23:13.294Z,-6.80
2022-12-16T06:25:59.588Z,-6.70
2022-12-16T06:28:46.103Z,-6.60
2022-12-16T06:31:32.443Z,-6.50
2022-12-16T06:34:17.591Z,-6.40
2022-12-16T06:37:03.447Z,-6.40
2022-12-16T06:39:52.769Z,-6.40
2022-12-16T06:42:38.901Z,-6.30
2022-12-16T06:45:26.962Z,-6.30
2022-12-16T06:48:15.568Z,-6.20
2022-12-16T06:51:01.242Z,-6.10
2022-12-16T06:53:46.672Z,-6.10
2022-12-16T06:56:32.417Z,-6.10
2022-12-16T06:59:17.732Z,-6.00
2022-12-16T07:02:04.022Z,-6.00
2022-12-16T07:04:49.202Z,-6.00
2022-12-16T07:07:34.937Z,-5.90
2022-12-16T07:10:25.369Z,-5.90
2022-12-16T07:13:10.381Z,-5.80
2022-12-16T07:15:56.197Z,-5.80
2022-12-16T07:18:41.421Z,-5.80
2022-12-16T07:21:27.350Z,-5.80
2022-12-16T07:24:12.845Z,-5.70
2022-12-16T07:26:58.685Z,-5.70
2022-12-16T07:29:44.118Z,-5.70
2022-12-16T07:32:29.898Z,-5.70
2022-12-16T07:35:15.747Z,-5.60
2022-12-16T07:38:01.150Z,-5.60
2022-12-16T07:40:46.921Z,-5.60
2022-12-16T07:43:32.752Z,-5.60
2022-12-16T07:46:18.943Z,-5.50
2022-12-16T07:49:23.948Z,-5.50
2022-12-16T07:52:09.948Z,-5.40
2022-12-16T07:54:55.736Z,-5.40
2022-12-16T07:57:40.864Z,-5.30
2022-12-16T08:00:26.931Z,-5.30
2022-12-16T08:03:13.219Z,-5.20
2022-12-16T08:05:59.041Z,-5.20
2022-12-16T08:08:44.357Z,-5.10
2022-12-16T08:11:30.037Z,-5.10
2022-12-16T08:14:15.391Z,-5.10
2022-12-16T08:17:01.340Z,-5.00
2022-12-16T08:19:46.505Z,-5.00
2022-12-16T08:22:32.490Z,-4.90
2022-12-16T08:25:18.308Z,-4.90
2022-12-16T08:28:03.830Z,-4.90
2022-12-16T08:30:49.810Z,-4.90
2022-12-16T08:33:35.492Z,-4.90
2022-12-16T08:36:21.870Z,-4.90
2022-12-16T08:39:07.285Z,-4.80
2022-12-16T08:41:53.270Z,-4.70
2022-12-16T08:44:39.417Z,-4.70
2022-12-16T08:47:25.218Z,-4.70
2022-12-16T08:50:10.594Z,-4.60
2022-12-16T08:52:56.474Z,-4.60
2022-12-16T08:55:42.091Z,-4.50
2022-12-16T08:58:27.566Z,-4.50
2022-12-16T09:01:13.315Z,-4.40
2022-12-16T09:03:58.677Z,-4.40
2022-12-16T09:06:44.503Z,-4.40
2022-12-16T09:09:29.816Z,-4.30
2022-12-16T09:12:15.923Z,-4.40
2022-12-16T09:15:01.156Z,-4.40
2022-12-16T09:17:46.409Z,-4.30
2022-12-16T09:20:32.207Z,-4.30
2022-12-16T09:23:21.085Z,-4.30
2022-12-16T09:26:07.098Z,-4.20
2022-12-16T09:28:52.508Z,-4.20
2022-12-16T09:31:39.014Z,-4.20
2022-12-16T09:34:24.151Z,-4.20
2022-12-16T09:37:10.277Z,-4.20
2022-12-16T09:39:55.695Z,-4.10
2022-12-16T09:43:03.384Z,-4.10
2022-12-16T09:46:12.662Z,-4.20
2022-12-16T09:49:29.542Z,-4.10
2022-12-16T09:52:18.600Z,-4.10
2022-12-16T09:55:05.021Z,-4.00
2022-12-16T09:57:54.541Z,-3.90
2022-12-16T10:00:47.406Z,-3.90
2022-12-16T10:03:45.760Z,-3.90
2022-12-16T10:06:50.154Z,-3.80
2022-12-16T10:10:08.646Z,-3.80
2022-12-16T10:13:09.471Z,-3.70
2022-12-16T10:16:09.727Z,-3.70
2022-12-16T10:19:19.881Z,-3.60
2022-12-16T10:22:18.448Z,-3.50
2022-12-16T10:25:10.360Z,-3.50
2022-12-16T10:28:07.495Z,-3.50
2022-12-16T10:30:56.745Z,-3.40
2022-12-16T10:33:47.283Z,-3.40
2022-12-16T10:36:40.474Z,-3.40
2022-12-16T10:39:42.323Z,-3.40
2022-12-16T10:42:47.848Z,-3.30
2022-12-16T10:45:42.977Z,-3.30
2022-12-16T10:48:30.636Z,-3.30
2022-12-16T10:51:18.858Z,-3.30
2022-12-16T10:54:09.705Z,-3.30
2022-12-16T10:57:12.416Z,-3.20
2022-12-16T11:00:00.135Z,-3.20
2022-12-16T11:02:47.271Z,-3.10
2022-12-16T11:05:48.188Z,-3.10
2022-12-16T11:08:55.672Z,-3.10
2022-12-16T11:11:46.685Z,-3.00
2022-12-16T11:15:05.415Z,-3.00
2022-12-16T11:17:48.169Z,-2.90
2022-12-16T11:20:33.803Z,-2.80
2022-12-16T11:23:43.979Z,-2.80
2022-12-16T11:26:34.574Z,-2.70
2022-12-16T11:29:23.265Z,-2.60
2022-12-16T11:32:14.142Z,-2.60
2022-12-16T11:35:02.110Z,-2.60
2022-12-16T11:37:49.718Z,-2.50
2022-12-16T11:40:37.223Z,-2.50
2022-12-16T11:43:24.159Z,-2.50
2022-12-16T11:46:10.979Z,-2.50
2022-12-16T11:49:19.288Z,-2.50
2022-12-16T11:59:05.369Z,-2.40
2022-12-16T12:02:14.171Z,-2.40
2022-12-16T12:04:59.823Z,-2.40
2022-12-16T12:08:15.295Z,-2.30
2022-12-16T12:11:37.364Z,-2.30
2022-12-16T12:14:43.207Z,-2.20
2022-12-16T12:18:18.947Z,-2.20
2022-12-16T12:21:16.857Z,-2.20
2022-12-16T12:24:07.528Z,-2.20
2022-12-16T12:26:57.408Z,-2.10
2022-12-16T12:30:02.764Z,-2.00
2022-12-16T12:32:54.652Z,-2.00
2022-12-16T12:36:05.037Z,-1.80
2022-12-16T12:38:57.143Z,-1.70
2022-12-16T12:41:44.990Z,-1.60
2022-12-16T12:44:49.087Z,-1.50
2022-12-16T12:47:35.922Z,-1.40
2022-12-16T12:50:50.549Z,-1.40
2022-12-16T12:53:48.394Z,-1.40
2022-12-16T12:56:53.610Z,-1.40
2022-12-16T13:00:17.980Z,-1.40
2022-12-16T13:03:17.293Z,-1.40
2022-12-16T13:06:03.029Z,-1.40
2022-12-16T13:09:05.118Z,-1.30
2022-12-16T13:11:50.511Z,-1.30
2022-12-16T13:14:51.767Z,-1.30
2022-12-16T13:17:39.472Z,-1.40
2022-12-16T13:20:54.459Z,-1.30
2022-12-16T13:23:50.433Z,-1.40
2022-12-16T13:26:38.426Z,-1.40
2022-12-16T13:29:40.659Z,-1.50
2022-12-16T13:32:25.916Z,-1.50
2022-12-16T13:35:27.015Z,-1.40
2022-12-16T13:38:17.961Z,-1.40
2022-12-16T13:41:15.633Z,-1.30
2022-12-16T13:44:08.253Z,-1.40
2022-12-16T13:47:10.991Z,-1.40
2022-12-16T13:50:06.837Z,-1.30
2022-12-16T13:53:18.574Z,-1.30
2022-12-16T13:56:10.591Z,-1.30
2022-12-16T13:59:22.819Z,-1.40
2022-12-16T14:02:20.558Z,-1.40
2022-12-16T14:05:12.766Z,-1.40
2022-12-16T14:07:59.211Z,-1.40
2022-12-16T14:10:52.790Z,-1.40
2022-12-16T14:13:50.028Z,-1.40
2022-12-16T14:16:54.527Z,-1.50
2022-12-16T14:19:44.385Z,-1.40
2022-12-16T14:22:32.530Z,-1.40
2022-12-16T14:25:35.370Z,-1.50
2022-12-16T14:28:41.674Z,-1.40
2022-12-16T14:31:50.689Z,-1.40
2022-12-16T14:34:41.018Z,-1.50
2022-12-16T14:37:38.132Z,-1.40
2022-12-16T14:40:38.433Z,-1.40
2022-12-16T14:43:39.935Z,-1.40
2022-12-16T14:46:45.939Z,-1.40
2022-12-16T14:49:39.249Z,-1.40
2022-12-16T14:52:55.370Z,-1.40
2022-12-16T14:55:52.643Z,-1.40
2022-12-16T14:58:40.642Z,-1.40
2022-12-16T15:01:44.841Z,-1.40
2022-12-16T15:04:49.246Z,-1.40
2022-12-16T15:07:34.721Z,-1.40
2022-12-16T15:10:21.114Z,-1.40
2022-12-16T15:13:07.937Z,-1.40
2022-12-16T15:16:21.081Z,-1.40
2022-12-16T15:19:16.088Z,-1.50
2022-12-16T15:22:02.589Z,-1.50
2022-12-16T15:24:54.492Z,-1.50
2022-12-16T15:27:39.839Z,-1.50
2022-12-16T15:31:02.910Z,-1.50
2022-12-16T15:33:54.240Z,-1.50
2022-12-16T15:36:52.710Z,-1.50
2022-12-16T15:39:59.818Z,-1.50
2022-12-16T15:42:51.791Z,-1.50
2022-12-16T15:45:50.065Z,-1.50
2022-12-16T15:48:45.586Z,-1.50
2022-12-16T15:52:00.154Z,-1.50
2022-12-16T15:54:45.360Z,-1.50
2022-12-16T15:57:50.840Z,-1.50
2022-12-16T16:00:49.594Z,-1.50
2022-12-16T16:03:39.565Z,-1.50
2022-12-16T16:06:36.799Z,-1.50
2022-12-16T16:09:38.656Z,-1.50
2022-12-16T16:12:24.340Z,-1.50
2022-12-16T16:15:09.797Z,-1.50
2022-12-16T16:17:54.948Z,-1.50
2022-12-16T16:20:40.071Z,-1.50
2022-12-16T16:23:26.932Z,-1.50
2022-12-16T16:26:12.306Z,-1.50
2022-12-16T16:28:59.336Z,-1.50
2022-12-16T16:31:44.456Z,-1.40
2022-12-16T16:34:30.116Z,-1.40
2022-12-16T16:37:17.188Z,-1.40
2022-12-16T16:40:03.214Z,-1.40
2022-12-16T16:42:49.679Z,-1.40
2022-12-16T16:45:34.912Z,-1.40
2022-12-16T16:48:34.644Z,-1.40
2022-12-16T16:51:41.870Z,-1.40
2022-12-16T16:54:26.849Z,-1.40
2022-12-16T16:57:12.100Z,-1.40
2022-12-16T16:59:57.537Z,-1.40
2022-12-16T17:02:44.068Z,-1.40
2022-12-16T17:05:30.649Z,-1.40
2022-12-16T17:08:16.201Z,-1.40
2022-12-16T17:11:02.195Z,-1.40
2022-12-16T17:13:47.416Z,-1.40
2022-12-16T17:16:36.655Z,-1.40
2022-12-16T17:19:21.874Z,-1.40
2022-12-16T17:22:07.543Z,-1.40
2022-12-16T17:24:54.571Z,-1.30
2022-12-16T17:27:43.204Z,-1.30
2022-12-16T17:30:44.957Z,-1.30
2022-12-16T17:33:34.411Z,-1.30
2022-12-16T17:36:20.599Z,-1.30
2022-12-16T17:39:06.034Z,-1.30
2022-12-16T17:41:53.079Z,-1.30
2022-12-16T17:44:38.448Z,-1.30
2022-12-16T17:47:24.396Z,-1.30
2022-12-16T17:50:10.390Z,-1.30
2022-12-16T17:52:55.755Z,-1.30
2022-12-16T17:55:41.469Z,-1.30
2022-12-16T17:58:27.496Z,-1.30
2022-12-16T18:01:20.757Z,-1.30
2022-12-16T18:04:07.140Z,-1.30
2022-12-16T18:06:53.340Z,-1.30
2022-12-16T18:09:38.753Z,-1.30
2022-12-16T18:12:24.605Z,-1.30
2022-12-16T18:15:09.945Z,-1.30
2022-12-16T18:17:55.336Z,-1.30
2022-12-16T18:20:41.109Z,-1.30
2022-12-16T18:23:26.217Z,-1.30
2022-12-16T18:26:20.171Z,-1.30
2022-12-16T18:29:05.477Z,-1.30
2022-12-16T18:31:51.856Z,-1.30
2022-12-16T18:34:37.556Z,-1.30
2022-12-16T18:37:23.199Z,-1.30
2022-12-16T18:40:08.524Z,-1.30
2022-12-16T18:42:54.230Z,-1.30
2022-12-16T18:45:39.929Z,-1.30
2022-12-16T18:48:24.978Z,-1.30
2022-12-16T18:51:18.658Z,-1.30
2022-12-16T18:54:04.598Z,-1.20
2022-12-16T18:56:50.413Z,-1.30
2022-12-16T18:59:35.679Z,-1.30
2022-12-16T19:02:21.652Z,-1.30
2022-12-16T19:05:06.909Z,-1.30
2022-12-16T19:08:03.245Z,-1.30
2022-12-16T19:10:49.123Z,-1.30
2022-12-16T19:13:34.303Z,-1.30
2022-12-16T19:16:21.938Z,-1.30
2022-12-16T19:19:19.617Z,-1.30
2022-12-16T19:22:06.621Z,-1.30
2022-12-16T19:24:52.053Z,-1.30
2022-12-16T19:27:37.909Z,-1.30
2022-12-16T19:30:23.669Z,-1.30
2022-12-16T19:33:09.230Z,-1.30
2022-12-16T19:35:55.060Z,-1.30
2022-12-16T19:38:42.351Z,-1.40
2022-12-16T19:41:36.402Z,-1.40
2022-12-16T19:44:22.843Z,-1.30
2022-12-16T19:47:09.241Z,-1.30
2022-12-16T19:49:54.987Z,-1.40
2022-12-16T19:52:42.045Z,-1.40
2022-12-16T19:55:27.804Z,-1.40
2022-12-16T19:58:13.092Z,-1.40
2022-12-16T20:00:58.770Z,-1.40
2022-12-16T20:03:44.846Z,-1.40
2022-12-16T20:06:31.413Z,-1.40
2022-12-16T20:09:17.399Z,-1.40
2022-12-16T20:12:02.896Z,-1.40
2022-12-16T20:14:48.778Z,-1.40
2022-12-16T20:17:33.950Z,-1.40
2022-12-16T20:20:19.387Z,-1.40
2022-12-16T20:23:04.931Z,-1.40
2022-12-16T20:25:50.408Z,-1.40
2022-12-16T20:28:35.874Z,-1.40
2022-12-16T20:31:21.958Z,-1.40
2022-12-16T20:34:14.560Z,-1.40
2022-12-16T20:37:00.179Z,-1.40
2022-12-16T20:39:52.946Z,-1.40
2022-12-16T20:42:46.219Z,-1.50
2022-12-16T20:45:32.139Z,-1.50
2022-12-16T20:48:17.348Z,-1.50
2022-12-16T20:51:02.471Z,-1.50
2022-12-16T20:53:47.932Z,-1.40
2022-12-16T20:56:33.660Z,-1.50
2022-12-16T20:59:19.134Z,-1.50
2022-12-16T21:05:09.557Z,-1.50
2022-12-16T21:07:55.019Z,-1.50
2022-12-16T21:10:42.804Z,-1.50
2022-12-16T21:13:30.675Z,-1.50
2022-12-16T21:16:18.045Z,-1.50
2022-12-16T21:19:03.708Z,-1.50
2022-12-16T21:21:49.580Z,-1.50
2022-12-16T21:24:35.386Z,-1.50
2022-12-16T21:27:20.754Z,-1.50
2022-12-16T21:30:06.114Z,-1.50
2022-12-16T21:32:51.562Z,-1.50
2022-12-16T21:35:39.905Z,-1.60
2022-12-16T21:38:43.757Z,-1.60
2022-12-16T21:41:29.857Z,-1.60
2022-12-16T21:44:15.530Z,-1.50
2022-12-16T21:47:00.898Z,-1.60
2022-12-16T21:49:46.711Z,-1.50
2022-12-16T21:52:31.723Z,-1.60
2022-12-16T21:55:17.646Z,-1.60
2022-12-16T21:58:03.126Z,-1.60
2022-12-16T22:00:50.312Z,-1.60
2022-12-16T22:03:38.737Z,-1.60
2022-12-16T22:06:25.058Z,-1.60
2022-12-16T22:09:10.911Z,-1.60
2022-12-16T22:11:56.391Z,-1.60
2022-12-16T22:14:42.220Z,-1.60
2022-12-16T22:17:27.755Z,-1.50
2022-12-16T22:20:13.905Z,-1.60
2022-12-16T22:22:59.046Z,-1.50
2022-12-16T22:25:45.096Z,-1.50
2022-12-16T22:28:30.187Z,-1.50
2022-12-16T22:31:16.662Z,-1.50
2022-12-16T22:34:02.689Z,-1.50
2022-12-16T22:36:48.457Z,-1.50
2022-12-16T22:39:33.680Z,-1.50
2022-12-16T22:42:19.609Z,-1.50
2022-12-16T22:45:05.465Z,-1.50
2022-12-16T22:47:51.005Z,-1.50
2022-12-16T22:50:37.653Z,-1.50
2022-12-16T22:53:23.153Z,-1.50
2022-12-16T22:56:13.199Z,-1.50
2022-12-16T22:58:59.350Z,-1.50
2022-12-16T23:01:45.689Z,-1.50
2022-12-16T23:04:31.008Z,-1.50
2022-12-16T23:07:16.762Z,-1.50
2022-12-16T23:10:02.617Z,-1.50
2022-12-16T23:12:47.994Z,-1.50
2022-12-16T23:15:33.822Z,-1.50
2022-12-16T23:18:19.309Z,-1.50
2022-12-16T23:21:09.835Z,-1.50
2022-12-16T23:23:56.902Z,-1.50
2022-12-16T23:26:43.475Z,-1.50
2022-12-16T23:29:30.892Z,-1.50
2022-12-16T23:32:16.100Z,-1.50
2022-12-16T23:35:01.815Z,-1.50
2022-12-16T23:37:46.947Z,-1.50
2022-12-16T23:40:32.823Z,-1.50
2022-12-16T23:43:18.360Z,-1.50
2022-12-16T23:46:04.071Z,-1.50
2022-12-16T23:48:49.880Z,-1.40
2022-12-16T23:51:35.210Z,-1.50
2022-12-16T23:54:21.067Z,-1.50
2022-12-16T23:57:06.156Z,-1.50
2022-12-16T23:59:51.824Z,-1.50
